| time (UTC) | temp C | wind direction | speed KPH | gust KPH | rain 1hr cm | rain 24hr cm | rain mn cm | humidity % | barometer mb |
| 20260504150931 | 20 | 125 | 6.4 | 19.3 | 0.00 | 0.00 | 0.00 | 33 | 1015.2 |
| 20260504150429 | 20 | 205 | 6.4 | 19.3 | 0.00 | 0.00 | 0.00 | 34 | 1015.3 |
| 20260504140930 | 16 | 82 | 1.6 | 8.0 | 0.00 | 0.00 | 0.00 | 45 | 1015.3 |
| 20260504140722 | 16 | 188 | 1.6 | 8.0 | 0.00 | 0.00 | 0.00 | 43 | 1015.4 |
| 20260504130430 | 13 | 82 | 1.6 | 8.0 | 0.00 | 0.00 | 0.00 | 52 | 1015.9 |
| 20260504130222 | 13 | 166 | 3.2 | 8.0 | 0.00 | 0.00 | 0.00 | 52 | 1016.0 |
| 20260504100403 | 7 | 82 | 1.6 | 4.8 | 0.00 | 0.00 | 0.00 | 83 | 1016.2 |
| 20260504081902 | 7 | 265 | 1.6 | 4.8 | 0.00 | 0.00 | 0.00 | 82 | 1016.6 |
| 20260504081403 | 7 | 248 | 1.6 | 4.8 | 0.00 | 0.00 | 0.00 | 82 | 1016.4 |
| 20260504081157 | 7 | 129 | 1.6 | 4.8 | 0.00 | 0.00 | 0.00 | 82 | 1016.4 |
| 20260504080401 | 7 | 73 | 1.6 | 4.8 | 0.00 | 0.00 | 0.00 | 83 | 1016.6 |
| 20260504050650 | 5 | 54 | 1.6 | 1.6 | 0.00 | 0.00 | 0.00 | 81 | 1017.2 |
| 20260504045857 | 5 | 54 | 1.6 | 1.6 | 0.00 | 0.00 | 0.00 | 81 | 1017.1 |
| 20260504045356 | 5 | 54 | 1.6 | 1.6 | 0.00 | 0.00 | 0.00 | 81 | 1017.1 |
| 20260504044858 | 5 | 69 | 1.6 | 1.6 | 0.00 | 0.00 | 0.00 | 81 | 1017.1 |
| 20260504044356 | 5 | 54 | 1.6 | 1.6 | 0.00 | 0.00 | 0.00 | 81 | 1017.1 |
| 20260504044151 | 5 | 326 | 1.6 | 1.6 | 0.00 | 0.00 | 0.00 | 81 | 1017.2 |
| 20260504043357 | 5 | 73 | 1.6 | 1.6 | 0.00 | 0.00 | 0.00 | 80 | 1017.1 |
| 20260504042858 | 5 | 54 | 1.6 | 4.8 | 0.00 | 0.00 | 0.00 | 80 | 1017.0 |
| 20260504042357 | 5 | 279 | 1.6 | 4.8 | 0.00 | 0.00 | 0.00 | 80 | 1017.1 |
| 20260504042152 | 6 | 54 | 1.6 | 1.6 | 0.00 | 0.00 | 0.00 | 79 | 1017.0 |
| 20260504041654 | 6 | 82 | 1.6 | 1.6 | 0.00 | 0.00 | 0.00 | 79 | 1017.0 |
| 20260504040857 | 6 | 54 | 1.6 | 4.8 | 0.00 | 0.00 | 0.00 | 79 | 1017.0 |
| 20260504040356 | 6 | 54 | 1.6 | 4.8 | 0.00 | 0.00 | 0.00 | 79 | 1017.0 |
| 20260504035852 | 6 | 11 | 1.6 | 1.6 | 0.00 | 0.00 | 0.00 | 78 | 1017.0 |
| 20260504035649 | 6 | 54 | 0.0 | 1.6 | 0.00 | 0.00 | 0.00 | 78 | 1017.1 |
| 20260504034851 | 6 | 54 | 1.6 | 4.8 | 0.00 | 0.00 | 0.00 | 78 | 1017.2 |
| 20260504034353 | 6 | 54 | 1.6 | 4.8 | 0.00 | 0.00 | 0.00 | 78 | 1017.1 |
| 20260504033850 | 6 | 54 | 1.6 | 1.6 | 0.00 | 0.00 | 0.00 | 77 | 1017.3 |
| 20260504033351 | 6 | 73 | 1.6 | 4.8 | 0.00 | 0.00 | 0.00 | 76 | 1017.1 |
| 20260504032853 | 6 | 89 | 1.6 | 4.8 | 0.00 | 0.00 | 0.00 | 76 | 1017.0 |
| 20260504032351 | 6 | 82 | 1.6 | 1.6 | 0.00 | 0.00 | 0.00 | 76 | 1017.0 |
| 20260504031849 | 7 | 28 | 1.6 | 1.6 | 0.00 | 0.00 | 0.00 | 75 | 1016.8 |
| 20260504031347 | 7 | 110 | 1.6 | 4.8 | 0.00 | 0.00 | 0.00 | 75 | 1016.9 |
| 20260504030847 | 7 | 117 | 1.6 | 4.8 | 0.00 | 0.00 | 0.00 | 74 | 1016.9 |
| 20260504030345 | 7 | 117 | 1.6 | 1.6 | 0.00 | 0.00 | 0.00 | 74 | 1016.9 |
| 20260504025845 | 7 | 54 | 1.6 | 4.8 | 0.00 | 0.00 | 0.00 | 73 | 1016.8 |
| 20260504025343 | 7 | 54 | 1.6 | 4.8 | 0.00 | 0.00 | 0.00 | 72 | 1016.9 |
| 20260504024844 | 7 | 89 | 1.6 | 1.6 | 0.00 | 0.00 | 0.00 | 72 | 1016.8 |
| 20260504024343 | 7 | 82 | 0.0 | 1.6 | 0.00 | 0.00 | 0.00 | 71 | 1016.7 |
| 20260504023844 | 7 | 73 | 1.6 | 1.6 | 0.00 | 0.00 | 0.00 | 70 | 1016.7 |
| 20260504023338 | 7 | 100 | 1.6 | 4.8 | 0.00 | 0.00 | 0.00 | 69 | 1016.8 |
| 20260504023129 | 7 | 54 | 1.6 | 4.8 | 0.00 | 0.00 | 0.00 | 68 | 1016.7 |
| 20260504022331 | 7 | 89 | 0.0 | 1.6 | 0.00 | 0.00 | 0.00 | 67 | 1016.7 |
| 20260504022123 | 8 | 73 | 0.0 | 1.6 | 0.00 | 0.00 | 0.00 | 67 | 1016.6 |
| 20260504021621 | 8 | 54 | 0.0 | 1.6 | 0.00 | 0.00 | 0.00 | 67 | 1016.6 |
| 20260504020830 | 8 | 54 | 0.0 | 4.8 | 0.00 | 0.00 | 0.00 | 66 | 1016.6 |
| 20260504020333 | 8 | 54 | 1.6 | 4.8 | 0.00 | 0.00 | 0.00 | 66 | 1016.6 |
| 20260504020123 | 8 | 143 | 1.6 | 4.8 | 0.00 | 0.00 | 0.00 | 64 | 1016.6 |
| 20260504015623 | 8 | 54 | 1.6 | 4.8 | 0.00 | 0.00 | 0.00 | 63 | 1016.5 |
| 20260504014830 | 8 | 326 | 1.6 | 4.8 | 0.00 | 0.00 | 0.00 | 63 | 1016.5 |
| 20260504014330 | 8 | 73 | 1.6 | 4.8 | 0.00 | 0.00 | 0.00 | 64 | 1016.4 |
| 20260504014126 | 9 | 345 | 1.6 | 4.8 | 0.00 | 0.00 | 0.00 | 62 | 1016.3 |
| 20260504013632 | 9 | 134 | 1.6 | 4.8 | 0.00 | 0.00 | 0.00 | 61 | 1016.3 |
| 20260504012830 | 9 | 117 | 1.6 | 4.8 | 0.00 | 0.00 | 0.00 | 60 | 1016.3 |
| 20260504012332 | 10 | 117 | 1.6 | 4.8 | 0.00 | 0.00 | 0.00 | 59 | 1016.2 |
| 20260504011830 | 10 | 100 | 1.6 | 4.8 | 0.00 | 0.00 | 0.00 | 58 | 1016.1 |
| 20260504011331 | 10 | 100 | 1.6 | 4.8 | 0.00 | 0.00 | 0.00 | 57 | 1016.1 |
| 20260504010830 | 10 | 28 | 1.6 | 4.8 | 0.00 | 0.00 | 0.00 | 58 | 1016.1 |
| 20260504010331 | 10 | 28 | 1.6 | 4.8 | 0.00 | 0.00 | 0.00 | 58 | 1016.0 |
| 20260504005825 | 10 | 100 | 1.6 | 4.8 | 0.00 | 0.00 | 0.00 | 55 | 1016.1 |
| 20260504005613 | 11 | 11 | 1.6 | 4.8 | 0.00 | 0.00 | 0.00 | 53 | 1016.2 |
| 20260504004813 | 11 | 82 | 1.6 | 4.8 | 0.00 | 0.00 | 0.00 | 53 | 1016.1 |
| 20260504004308 | 11 | 100 | 1.6 | 4.8 | 0.00 | 0.00 | 0.00 | 56 | 1015.9 |
| 20260504003804 | 11 | 54 | 1.6 | 4.8 | 0.00 | 0.00 | 0.00 | 50 | 1015.9 |
| 20260504003304 | 11 | 116 | 1.6 | 1.6 | 0.00 | 0.00 | 0.00 | 48 | 1015.9 |
| 20260504002804 | 12 | 82 | 1.6 | 4.8 | 0.00 | 0.00 | 0.00 | 46 | 1015.7 |
| 20260504002304 | 12 | 89 | 1.6 | 4.8 | 0.00 | 0.00 | 0.00 | 49 | 1015.8 |
| 20260504001804 | 12 | 54 | 1.6 | 4.8 | 0.00 | 0.00 | 0.00 | 48 | 1015.8 |
| 20260504001306 | 13 | 110 | 1.6 | 4.8 | 0.00 | 0.00 | 0.00 | 47 | 1015.6 |
| 20260504000805 | 13 | 82 | 0.0 | 4.8 | 0.00 | 0.00 | 0.00 | 46 | 1015.6 |
| 20260504000305 | 13 | 234 | 0.0 | 4.8 | 0.00 | 0.00 | 0.00 | 44 | 1015.5 |
| 20260503235804 | 14 | 54 | 0.0 | 4.8 | 0.00 | 0.00 | 0.00 | 42 | 1015.5 |
| 20260503235304 | 14 | 11 | 1.6 | 4.8 | 0.00 | 0.00 | 0.00 | 41 | 1015.5 |
| 20260503234804 | 15 | 11 | 1.6 | 4.8 | 0.00 | 0.00 | 0.00 | 39 | 1015.5 |
| 20260503234302 | 15 | 54 | 0.0 | 8.0 | 0.00 | 0.00 | 0.00 | 38 | 1015.4 |
| 20260503233802 | 15 | 82 | 1.6 | 8.0 | 0.00 | 0.00 | 0.00 | 34 | 1015.4 |
| 20260503233302 | 16 | 260 | 1.6 | 8.0 | 0.00 | 0.00 | 0.00 | 32 | 1015.4 |
| 20260503232802 | 16 | 143 | 3.2 | 12.9 | 0.00 | 0.00 | 0.00 | 31 | 1015.4 |
| 20260503232301 | 16 | 143 | 3.2 | 12.9 | 0.00 | 0.00 | 0.00 | 30 | 1015.3 |
| 20260503231802 | 16 | 222 | 3.2 | 11.3 | 0.00 | 0.00 | 0.00 | 30 | 1015.2 |
| 20260503231301 | 16 | 143 | 3.2 | 11.3 | 0.00 | 0.00 | 0.00 | 30 | 1015.2 |
| 20260503231057 | 16 | 255 | 3.2 | 12.9 | 0.00 | 0.00 | 0.00 | 28 | 1015.1 |
| 20260503230303 | 16 | 276 | 3.2 | 12.9 | 0.00 | 0.00 | 0.00 | 27 | 1015.1 |
| 20260503225803 | 16 | 203 | 3.2 | 8.0 | 0.00 | 0.00 | 0.00 | 30 | 1015.2 |
| 20260503225304 | 16 | 171 | 3.2 | 11.3 | 0.00 | 0.00 | 0.00 | 27 | 1015.2 |
| 20260503224801 | 16 | 241 | 3.2 | 14.5 | 0.00 | 0.00 | 0.00 | 27 | 1015.2 |
| 20260503224302 | 16 | 294 | 4.8 | 22.5 | 0.00 | 0.00 | 0.00 | 27 | 1015.2 |
| 20260503223802 | 16 | 289 | 3.2 | 22.5 | 0.00 | 0.00 | 0.00 | 28 | 1015.2 |
| 20260503223302 | 16 | 353 | 3.2 | 12.9 | 0.00 | 0.00 | 0.00 | 27 | 1015.3 |
| 20260503222803 | 16 | 11 | 3.2 | 17.7 | 0.00 | 0.00 | 0.00 | 27 | 1015.3 |
| 20260503222304 | 16 | 265 | 3.2 | 17.7 | 0.00 | 0.00 | 0.00 | 27 | 1015.3 |
| 20260503221856 | 16 | 260 | 6.4 | 29.0 | 0.00 | 0.00 | 0.00 | 26 | 1015.4 |
| 20260503221837 | 16 | 21 | 6.4 | 29.0 | 0.00 | 0.00 | 0.00 | 27 | 1015.3 |
| 20260503220802 | 17 | 241 | 6.4 | 22.5 | 0.00 | 0.00 | 0.00 | 28 | 1015.4 |
| 20260503220301 | 17 | 217 | 4.8 | 22.5 | 0.00 | 0.00 | 0.00 | 26 | 1015.3 |
| 20260503215802 | 17 | 234 | 4.8 | 19.3 | 0.00 | 0.00 | 0.00 | 27 | 1015.3 |
| 20260503215300 | 17 | 117 | 4.8 | 19.3 | 0.00 | 0.00 | 0.00 | 26 | 1015.4 |
| 20260503215107 | 17 | 234 | 4.8 | 32.2 | 0.00 | 0.00 | 0.00 | 27 | 1015.3 |
| 20260503214257 | 17 | 210 | 6.4 | 32.2 | 0.00 | 0.00 | 0.00 | 26 | 1015.5 |
| 20260503213757 | 18 | 261 | 6.4 | 22.5 | 0.00 | 0.00 | 0.00 | 28 | 1015.5 |
| 20260503213256 | 17 | 189 | 6.4 | 22.5 | 0.00 | 0.00 | 0.00 | 26 | 1015.5 |
| 20260503212756 | 17 | 253 | 6.4 | 32.2 | 0.00 | 0.00 | 0.00 | 26 | 1015.6 |
| 20260503212300 | 17 | 275 | 6.4 | 32.2 | 0.00 | 0.00 | 0.00 | 26 | 1015.6 |
| 20260503211759 | 18 | 188 | 6.4 | 22.5 | 0.00 | 0.00 | 0.00 | 25 | 1015.6 |
| 20260503211255 | 17 | 187 | 6.4 | 22.5 | 0.00 | 0.00 | 0.00 | 27 | 1015.5 |
| 20260503210754 | 17 | 256 | 6.4 | 22.5 | 0.00 | 0.00 | 0.00 | 26 | 1015.6 |
| 20260503210258 | 17 | 198 | 4.8 | 17.7 | 0.00 | 0.00 | 0.00 | 25 | 1015.6 |
| 20260503205756 | 17 | 205 | 6.4 | 22.5 | 0.00 | 0.00 | 0.00 | 26 | 1015.7 |
| 20260503205253 | 17 | 292 | 8.0 | 30.6 | 0.00 | 0.00 | 0.00 | 27 | 1015.8 |
| 20260503204752 | 17 | 282 | 8.0 | 30.6 | 0.00 | 0.00 | 0.00 | 26 | 1015.8 |
| 20260503204252 | 17 | 213 | 8.0 | 24.1 | 0.00 | 0.00 | 0.00 | 27 | 1015.8 |
| 20260503203752 | 17 | 313 | 8.0 | 24.1 | 0.00 | 0.00 | 0.00 | 26 | 1015.7 |
| 20260503203550 | 17 | 256 | 6.4 | 24.1 | 0.00 | 0.00 | 0.00 | 25 | 1015.7 |
| 20260503202744 | 18 | 179 | 6.4 | 22.5 | 0.00 | 0.00 | 0.00 | 25 | 1015.8 |
| 20260503202240 | 17 | 267 | 8.0 | 29.0 | 0.00 | 0.00 | 0.00 | 27 | 1015.7 |
| 20260503201741 | 17 | 253 | 9.7 | 43.5 | 0.00 | 0.00 | 0.00 | 27 | 1015.9 |
| 20260503201238 | 17 | 267 | 8.0 | 43.5 | 0.00 | 0.00 | 0.00 | 27 | 1016.0 |
| 20260503200737 | 17 | 177 | 6.4 | 29.0 | 0.00 | 0.00 | 0.00 | 30 | 1015.9 |
| 20260503200239 | 17 | 241 | 6.4 | 29.0 | 0.00 | 0.00 | 0.00 | 27 | 1016.1 |
| 20260503200033 | 17 | 187 | 8.0 | 32.2 | 0.00 | 0.00 | 0.00 | 27 | 1016.0 |
| 20260503195237 | 17 | 132 | 8.0 | 32.2 | 0.00 | 0.00 | 0.00 | 28 | 1016.2 |
| 20260503194738 | 17 | 248 | 8.0 | 29.0 | 0.00 | 0.00 | 0.00 | 28 | 1016.1 |
| 20260503194237 | 16 | 229 | 6.4 | 24.1 | 0.00 | 0.00 | 0.00 | 28 | 1016.2 |
| 20260503193740 | 16 | 357 | 4.8 | 17.7 | 0.00 | 0.00 | 0.00 | 29 | 1016.2 |
| 20260503193235 | 16 | 223 | 9.7 | 32.2 | 0.00 | 0.00 | 0.00 | 30 | 1016.4 |
| 20260503193038 | 16 | 196 | 11.3 | 41.8 | 0.00 | 0.00 | 0.00 | 29 | 1016.6 |
| 20260503192233 | 16 | 186 | 8.0 | 41.8 | 0.00 | 0.00 | 0.00 | 29 | 1016.6 |
| 20260503191733 | 16 | 4 | 8.0 | 37.0 | 0.00 | 0.00 | 0.00 | 30 | 1016.6 |
| 20260503191235 | 16 | 208 | 8.0 | 37.0 | 0.00 | 0.00 | 0.00 | 30 | 1016.6 |
| 20260503190736 | 16 | 325 | 6.4 | 19.3 | 0.00 | 0.00 | 0.00 | 30 | 1016.7 |
| 20260503190234 | 16 | 213 | 6.4 | 25.7 | 0.00 | 0.00 | 0.00 | 30 | 1016.8 |
| 20260503185735 | 16 | 301 | 8.0 | 25.7 | 0.00 | 0.00 | 0.00 | 30 | 1016.8 |
| 20260503185536 | 16 | 276 | 8.0 | 24.1 | 0.00 | 0.00 | 0.00 | 30 | 1017.0 |
| 20260503184731 | 15 | 275 | 6.4 | 24.1 | 0.00 | 0.00 | 0.00 | 31 | 1017.0 |
| 20260503184233 | 15 | 246 | 6.4 | 24.1 | 0.00 | 0.00 | 0.00 | 32 | 1017.0 |
| 20260503183731 | 15 | 69 | 4.8 | 24.1 | 0.00 | 0.00 | 0.00 | 31 | 1017.0 |
| 20260503183233 | 15 | 251 | 8.0 | 29.0 | 0.00 | 0.00 | 0.00 | 33 | 1017.2 |
| 20260503182731 | 15 | 236 | 8.0 | 35.4 | 0.00 | 0.00 | 0.00 | 33 | 1017.2 |
| 20260503182231 | 15 | 279 | 8.0 | 35.4 | 0.00 | 0.00 | 0.00 | 32 | 1017.2 |
| 20260503181830 | 15 | 229 | 9.7 | 35.4 | 0.00 | 0.00 | 0.00 | 31 | 1017.2 |
| 20260503181811 | 15 | 299 | 9.7 | 35.4 | 0.00 | 0.00 | 0.00 | 33 | 1017.3 |
| 20260503181032 | 15 | 259 | 9.7 | 29.0 | 0.00 | 0.00 | 0.00 | 32 | 1017.1 |
| 20260503180231 | 14 | 273 | 8.0 | 29.0 | 0.00 | 0.00 | 0.00 | 34 | 1017.2 |
| 20260503175839 | 15 | 253 | 4.8 | 24.1 | 0.00 | 0.00 | 0.00 | 32 | 1017.4 |
| 20260503175816 | 14 | 255 | 6.4 | 25.7 | 0.00 | 0.00 | 0.00 | 33 | 1017.4 |
| 20260503174730 | 15 | 100 | 6.4 | 30.6 | 0.00 | 0.00 | 0.00 | 33 | 1017.4 |
| 20260503174231 | 15 | 305 | 6.4 | 30.6 | 0.00 | 0.00 | 0.00 | 33 | 1017.4 |
| 20260503173730 | 15 | 215 | 8.0 | 43.5 | 0.00 | 0.00 | 0.00 | 34 | 1017.4 |
| 20260503173230 | 13 | 296 | 11.3 | 43.5 | 0.00 | 0.00 | 0.00 | 34 | 1017.6 |
| 20260503172729 | 13 | 239 | 8.0 | 32.2 | 0.00 | 0.00 | 0.00 | 33 | 1017.7 |
| 20260503172231 | 15 | 290 | 6.4 | 25.7 | 0.00 | 0.00 | 0.00 | 32 | 1017.7 |
| 20260503171730 | 13 | 16 | 8.0 | 32.2 | 0.00 | 0.00 | 0.00 | 34 | 1017.6 |
| 20260503171231 | 13 | 271 | 8.0 | 32.2 | 0.00 | 0.00 | 0.00 | 34 | 1017.8 |
| 20260503171123 | 13 | 264 | 8.0 | 25.7 | 0.00 | 0.00 | 0.00 | 33 | 1017.6 |
| 20260503171118 | 13 | 171 | 8.0 | 22.5 | 0.00 | 0.00 | 0.00 | 33 | 1017.7 |